createdAt,value
2018-04-08T00:00:44.711Z,99699.80
2018-04-08T00:03:10.666Z,99701.45
2018-04-08T00:05:36.590Z,99695.77
2018-04-08T00:08:02.530Z,99695.15
2018-04-08T00:10:28.458Z,99689.61
2018-04-08T00:12:54.386Z,99680.03
2018-04-08T00:15:21.001Z,99681.80
2018-04-08T00:17:46.928Z,99683.98
2018-04-08T00:20:12.851Z,99681.83
2018-04-08T00:22:38.766Z,99694.52
2018-04-08T00:25:04.697Z,99682.27
2018-04-08T00:27:30.692Z,99676.00
2018-04-08T00:29:56.622Z,99675.81
2018-04-08T00:32:22.542Z,99669.95
2018-04-08T00:34:48.504Z,99667.66
2018-04-08T00:37:14.426Z,99669.55
2018-04-08T00:39:40.361Z,99673.37
2018-04-08T00:42:06.320Z,99667.38
2018-04-08T00:44:32.258Z,99669.94
2018-04-08T00:46:58.189Z,99670.83
2018-04-08T00:49:24.119Z,99672.60
2018-04-08T00:51:50.062Z,99656.20
2018-04-08T00:54:16.033Z,99658.77
2018-04-08T00:56:42.124Z,99652.84
2018-04-08T00:59:08.100Z,99656.11
2018-04-08T01:01:34.023Z,99661.30
2018-04-08T01:03:59.967Z,99662.19
2018-04-08T01:06:25.890Z,99650.13
2018-04-08T01:08:51.854Z,99646.29
2018-04-08T01:11:17.795Z,99648.27
2018-04-08T01:13:43.767Z,99647.52
2018-04-08T01:16:09.695Z,99652.48
2018-04-08T01:18:35.653Z,99658.62
2018-04-08T01:21:01.677Z,99654.44
2018-04-08T01:23:27.650Z,99638.05
2018-04-08T01:25:53.576Z,99650.30
2018-04-08T01:28:19.519Z,99650.28
2018-04-08T01:30:45.466Z,99642.73
2018-04-08T01:33:11.424Z,99642.63
2018-04-08T01:38:09.831Z,99641.05
2018-04-08T01:40:35.799Z,99654.12
2018-04-08T01:43:01.750Z,99646.53
2018-04-08T01:45:27.692Z,99638.91
2018-04-08T01:47:53.653Z,99641.02
2018-04-08T01:50:19.600Z,99636.81
2018-04-08T01:52:45.529Z,99641.38
2018-04-08T01:55:11.486Z,99646.05
2018-04-08T01:57:37.424Z,99636.42
2018-04-08T02:00:03.410Z,99630.53
2018-04-08T02:02:29.360Z,99634.77
2018-04-08T02:04:55.329Z,99636.94
2018-04-08T02:07:21.268Z,99632.74
2018-04-08T02:09:47.218Z,99631.88
2018-04-08T02:12:13.139Z,99628.53
2018-04-08T02:14:39.110Z,99625.59
2018-04-08T02:17:05.026Z,99618.06
2018-04-08T02:19:31.019Z,99611.44
2018-04-08T02:21:56.957Z,99624.48
2018-04-08T02:24:22.926Z,99625.27
2018-04-08T02:26:48.891Z,99627.80
2018-04-08T02:29:14.848Z,99626.13
2018-04-08T02:31:40.791Z,99632.84
2018-04-08T02:34:06.745Z,99632.45
2018-04-08T02:36:32.707Z,99624.38
2018-04-08T02:38:58.673Z,99612.98
2018-04-08T02:41:24.648Z,99618.95
2018-04-08T02:43:50.590Z,99624.03
2018-04-08T02:46:16.588Z,99610.45
2018-04-08T02:48:42.538Z,99616.01
2018-04-08T02:51:08.502Z,99613.89
2018-04-08T02:53:34.467Z,99607.59
2018-04-08T02:56:00.443Z,99625.31
2018-04-08T02:58:26.372Z,99613.08
2018-04-08T03:00:52.292Z,99613.43
2018-04-08T03:03:18.247Z,99599.88
2018-04-08T03:05:44.190Z,99601.24
2018-04-08T03:08:10.186Z,99612.21
2018-04-08T03:10:36.123Z,99599.91
2018-04-08T03:13:02.105Z,99602.89
2018-04-08T03:15:28.053Z,99594.88
2018-04-08T03:17:54.003Z,99596.55
2018-04-08T03:20:19.929Z,99596.67
2018-04-08T03:22:46.034Z,99602.08
2018-04-08T03:25:11.962Z,99599.53
2018-04-08T03:27:37.884Z,99600.42
2018-04-08T03:30:03.892Z,99597.02
2018-04-08T03:32:29.878Z,99590.31
2018-04-08T03:34:55.850Z,99602.50
2018-04-08T03:37:21.780Z,99603.36
2018-04-08T03:39:47.963Z,99594.98
2018-04-08T03:42:13.920Z,99594.55
2018-04-08T03:44:39.883Z,99599.21
2018-04-08T03:47:05.811Z,99589.51
2018-04-08T03:49:31.754Z,99598.01
2018-04-08T03:51:57.697Z,99608.94
2018-04-08T03:54:23.690Z,99591.73
2018-04-08T03:56:49.666Z,99587.92
2018-04-08T03:59:15.597Z,99588.71
2018-04-08T04:01:41.564Z,99580.73
2018-04-08T04:04:07.522Z,99600.16
2018-04-08T04:06:33.473Z,99595.91
2018-04-08T04:08:59.424Z,99576.50
2018-04-08T04:11:25.468Z,99573.63
2018-04-08T04:13:51.413Z,99579.89
2018-04-08T04:16:17.362Z,99576.98
2018-04-08T04:18:43.286Z,99572.77
2018-04-08T04:21:09.282Z,99573.55
2018-04-08T04:23:35.230Z,99574.84
2018-04-08T04:26:01.162Z,99565.56
2018-04-08T04:28:27.095Z,99574.84
2018-04-08T04:30:53.028Z,99567.25
2018-04-08T04:33:19.008Z,99551.70
2018-04-08T04:35:44.966Z,99550.91
2018-04-08T04:38:10.906Z,99539.06
2018-04-08T04:40:36.866Z,99550.42
2018-04-08T04:43:02.796Z,99556.72
2018-04-08T04:45:28.718Z,99546.08
2018-04-08T04:47:54.666Z,99542.83
2018-04-08T04:50:20.598Z,99550.80
2018-04-08T04:52:46.546Z,99543.23
2018-04-08T04:55:12.507Z,99542.41
2018-04-08T04:57:38.426Z,99536.95
2018-04-08T05:00:04.364Z,99551.27
2018-04-08T05:02:30.298Z,99534.41
2018-04-08T05:04:56.243Z,99538.97
2018-04-08T05:07:22.168Z,99550.81
2018-04-08T05:09:48.117Z,99544.91
2018-04-08T05:12:14.070Z,99545.70
2018-04-08T05:14:40.006Z,99533.55
2018-04-08T05:17:05.942Z,99536.07
2018-04-08T05:19:31.900Z,99547.45
2018-04-08T05:21:57.855Z,99536.77
2018-04-08T05:24:23.785Z,99528.34
2018-04-08T05:26:49.774Z,99530.38
2018-04-08T05:29:15.714Z,99524.11
2018-04-08T05:31:41.798Z,99518.58
2018-04-08T05:34:07.745Z,99521.37
2018-04-08T05:36:33.744Z,99526.02
2018-04-08T05:38:59.768Z,99513.68
2018-04-08T05:41:25.719Z,99519.56
2018-04-08T05:43:51.690Z,99525.86
2018-04-08T05:46:17.638Z,99527.95
2018-04-08T05:48:43.606Z,99528.72
2018-04-08T05:51:09.607Z,99519.88
2018-04-08T05:53:35.705Z,99526.11
2018-04-08T05:56:01.653Z,99516.08
2018-04-08T05:58:27.603Z,99525.71
2018-04-08T06:00:53.554Z,99514.28
2018-04-08T06:03:19.474Z,99530.95
2018-04-08T06:05:45.432Z,99555.23
2018-04-08T06:08:11.359Z,99516.11
2018-04-08T06:10:37.369Z,99512.36
2018-04-08T06:13:03.341Z,99537.81
2018-04-08T06:15:29.278Z,99531.44
2018-04-08T06:17:55.231Z,99533.72
2018-04-08T06:20:21.189Z,99528.00
2018-04-08T06:22:47.123Z,99545.78
2018-04-08T06:25:13.066Z,99522.88
2018-04-08T06:27:39.019Z,99553.43
2018-04-08T06:30:05.109Z,99532.62
2018-04-08T06:32:31.062Z,99532.83
2018-04-08T06:34:57.024Z,99541.95
2018-04-08T06:37:22.958Z,99537.77
2018-04-08T06:39:48.928Z,99548.44
2018-04-08T06:42:14.883Z,99525.07
2018-04-08T06:44:41.187Z,99526.72
2018-04-08T06:47:07.135Z,99531.62
2018-04-08T06:49:33.083Z,99524.12
2018-04-08T06:51:59.019Z,99529.80
2018-04-08T06:54:24.965Z,99548.12
2018-04-08T06:56:50.959Z,99524.31
2018-04-08T06:59:16.907Z,99547.82
2018-04-08T07:01:42.883Z,99540.06
2018-04-08T07:04:08.823Z,99520.49
2018-04-08T07:06:34.793Z,99521.66
2018-04-08T07:09:00.752Z,99521.03
2018-04-08T07:11:26.699Z,99519.16
2018-04-08T07:13:52.665Z,99531.23
2018-04-08T07:16:18.603Z,99519.36
2018-04-08T07:18:44.579Z,99545.56
2018-04-08T07:21:10.537Z,99526.67
2018-04-08T07:23:36.496Z,99525.27
2018-04-08T07:26:02.515Z,99529.50
2018-04-08T07:28:28.480Z,99536.76
2018-04-08T07:30:54.434Z,99532.09
2018-04-08T07:33:20.874Z,99538.61
2018-04-08T07:35:46.833Z,99537.39
2018-04-08T07:38:12.785Z,99534.84
2018-04-08T07:40:38.733Z,99547.52
2018-04-08T07:43:04.707Z,99540.02
2018-04-08T07:45:30.887Z,99543.52
2018-04-08T07:47:56.850Z,99538.52
2018-04-08T07:50:22.777Z,99543.91
2018-04-08T07:52:48.712Z,99531.97
2018-04-08T07:55:14.645Z,99543.52
2018-04-08T07:57:40.608Z,99541.94
2018-04-08T08:00:06.582Z,99548.83
2018-04-08T08:02:32.562Z,99550.94
2018-04-08T08:04:58.529Z,99547.47
2018-04-08T08:07:24.510Z,99530.20
2018-04-08T08:09:50.453Z,99532.48
2018-04-08T08:12:16.428Z,99540.30
2018-04-08T08:14:42.366Z,99538.98
2018-04-08T08:17:08.345Z,99529.02
2018-04-08T08:19:34.294Z,99528.14
2018-04-08T08:22:00.658Z,99522.19
2018-04-08T08:24:26.629Z,99534.06
2018-04-08T08:26:52.562Z,99530.68
2018-04-08T08:29:18.493Z,99553.58
2018-04-08T08:31:44.448Z,99522.84
2018-04-08T08:34:10.455Z,99529.19
2018-04-08T08:36:37.026Z,99535.41
2018-04-08T08:39:02.985Z,99525.67
2018-04-08T08:41:28.930Z,99521.63
2018-04-08T08:43:54.890Z,99529.35
2018-04-08T08:46:20.839Z,99529.41
2018-04-08T08:48:46.818Z,99542.56
2018-04-08T08:51:12.813Z,99528.64
2018-04-08T08:53:38.760Z,99532.48
2018-04-08T08:56:04.710Z,99539.30
2018-04-08T08:58:30.686Z,99519.90
2018-04-08T09:00:56.621Z,99519.14
2018-04-08T09:03:22.826Z,99511.80
2018-04-08T09:05:48.770Z,99510.12
2018-04-08T09:08:14.730Z,99500.25
2018-04-08T09:10:40.688Z,99504.48
2018-04-08T09:13:06.740Z,99516.48
2018-04-08T09:15:32.677Z,99508.48
2018-04-08T09:17:58.675Z,99499.14
2018-04-08T09:20:24.645Z,99524.83
2018-04-08T09:22:50.638Z,99529.36
2018-04-08T09:25:16.697Z,99501.28
2018-04-08T09:30:15.130Z,99488.59
2018-04-08T09:32:41.068Z,99493.89
2018-04-08T09:35:07.060Z,99494.02
2018-04-08T09:37:33.085Z,99485.48
2018-04-08T09:39:59.046Z,99486.99
2018-04-08T09:42:25.030Z,99485.96
2018-04-08T09:44:50.987Z,99491.75
2018-04-08T09:47:16.939Z,99495.20
2018-04-08T09:49:42.887Z,99501.44
2018-04-08T09:52:08.894Z,99481.91
2018-04-08T09:54:34.846Z,99491.70
2018-04-08T09:57:00.806Z,99507.92
2018-04-08T09:59:26.756Z,99478.43
2018-04-08T10:01:53.598Z,99476.03
2018-04-08T10:04:19.543Z,99495.08
2018-04-08T10:06:45.510Z,99467.73
2018-04-08T10:09:11.502Z,99516.98
2018-04-08T10:11:37.453Z,99479.84
2018-04-08T10:14:03.414Z,99472.93
2018-04-08T10:16:29.338Z,99474.98
2018-04-08T10:18:55.284Z,99484.27
2018-04-08T10:21:21.207Z,99478.83
2018-04-08T10:23:47.130Z,99479.76
2018-04-08T10:26:13.073Z,99471.88
2018-04-08T10:28:39.066Z,99479.64
2018-04-08T10:31:05.005Z,99487.91
2018-04-08T10:33:31.267Z,99487.01
2018-04-08T10:35:57.245Z,99477.88
2018-04-08T10:38:23.249Z,99484.70
2018-04-08T10:40:49.198Z,99483.65
2018-04-08T10:43:15.133Z,99466.07
2018-04-08T10:45:41.149Z,99467.20
2018-04-08T10:48:07.117Z,99472.95
2018-04-08T10:50:33.035Z,99463.17
2018-04-08T10:52:59.064Z,99465.39
2018-04-08T10:55:25.046Z,99463.88
2018-04-08T10:57:50.983Z,99466.20
2018-04-08T11:00:16.948Z,99459.86
2018-04-08T11:02:42.895Z,99463.09
2018-04-08T11:05:08.820Z,99457.17
2018-04-08T11:07:34.793Z,99453.30
2018-04-08T11:10:00.755Z,99456.55
2018-04-08T11:12:26.825Z,99451.30
2018-04-08T11:14:52.769Z,99451.08
2018-04-08T11:17:18.722Z,99452.14
2018-04-08T11:19:44.663Z,99451.09
2018-04-08T11:22:10.603Z,99439.63
2018-04-08T11:24:36.569Z,99450.81
2018-04-08T11:27:02.535Z,99442.95
2018-04-08T11:29:28.481Z,99442.80
2018-04-08T11:31:54.475Z,99449.18
2018-04-08T11:34:20.420Z,99446.95
2018-04-08T11:36:46.396Z,99448.72
2018-04-08T11:39:12.356Z,99446.48
2018-04-08T11:41:38.280Z,99453.53
2018-04-08T11:44:04.235Z,99446.52
2018-04-08T11:46:30.177Z,99444.58
2018-04-08T11:48:56.179Z,99442.45
2018-04-08T11:51:22.132Z,99433.77
2018-04-08T11:53:48.074Z,99429.69
2018-04-08T11:56:14.036Z,99427.41
2018-04-08T11:58:40.042Z,99419.16
2018-04-08T12:01:05.976Z,99426.48
2018-04-08T12:03:31.932Z,99423.53
2018-04-08T12:05:57.904Z,99416.19
2018-04-08T12:08:23.909Z,99411.47
2018-04-08T12:10:49.850Z,99410.36
2018-04-08T12:13:15.835Z,99404.98
2018-04-08T12:15:41.787Z,99405.80
2018-04-08T12:18:07.732Z,99395.34
2018-04-08T12:20:33.672Z,99383.74
2018-04-08T12:22:59.816Z,99393.52
2018-04-08T12:25:25.902Z,99396.58
2018-04-08T12:27:51.849Z,99396.28
2018-04-08T12:30:17.818Z,99396.58
2018-04-08T12:32:43.716Z,99382.24
2018-04-08T12:35:09.674Z,99384.36
2018-04-08T12:37:35.638Z,99377.95
2018-04-08T12:40:01.624Z,99388.75
2018-04-08T12:42:27.606Z,99387.81
2018-04-08T12:44:53.561Z,99374.72
2018-04-08T12:47:19.560Z,99376.37
2018-04-08T12:49:45.514Z,99361.56
2018-04-08T12:52:11.489Z,99377.06
2018-04-08T12:54:37.429Z,99372.73
2018-04-08T12:57:03.396Z,99387.42
2018-04-08T12:59:29.344Z,99367.38
2018-04-08T13:01:55.292Z,99369.71
2018-04-08T13:04:21.250Z,99360.28
2018-04-08T13:06:47.205Z,99358.02
2018-04-08T13:09:13.184Z,99356.02
2018-04-08T13:11:39.136Z,99355.87
2018-04-08T13:14:05.126Z,99349.14
2018-04-08T13:16:31.060Z,99346.05
2018-04-08T13:18:57.012Z,99344.68
2018-04-08T13:21:22.947Z,99344.31
2018-04-08T13:23:48.890Z,99346.80
2018-04-08T13:26:14.846Z,99346.52
2018-04-08T13:28:40.832Z,99334.58
2018-04-08T13:31:06.784Z,99336.41
2018-04-08T13:33:32.722Z,99335.23
2018-04-08T13:35:58.650Z,99340.68
2018-04-08T13:38:24.700Z,99326.58
2018-04-08T13:40:50.656Z,99329.55
2018-04-08T13:43:16.877Z,99336.27
2018-04-08T13:45:42.852Z,99314.07
2018-04-08T13:48:08.787Z,99320.81
2018-04-08T13:50:34.719Z,99325.53
2018-04-08T13:53:00.639Z,99313.52
2018-04-08T13:55:26.588Z,99308.99
2018-04-08T13:57:52.528Z,99307.82
2018-04-08T14:00:18.470Z,99305.90
2018-04-08T14:02:44.428Z,99297.08
2018-04-08T14:05:10.413Z,99302.58
2018-04-08T14:07:36.460Z,99294.08
2018-04-08T14:10:02.465Z,99291.02
2018-04-08T14:12:28.424Z,99297.23
2018-04-08T14:14:54.380Z,99291.93
2018-04-08T14:17:20.310Z,99291.73
2018-04-08T14:19:46.308Z,99275.64
2018-04-08T14:22:12.244Z,99271.76
2018-04-08T14:24:38.262Z,99278.39
2018-04-08T14:27:04.220Z,99272.08
2018-04-08T14:29:30.411Z,99267.70
2018-04-08T14:31:56.345Z,99255.13
2018-04-08T14:34:22.281Z,99262.82
2018-04-08T14:36:48.233Z,99255.55
2018-04-08T14:39:14.163Z,99253.83
2018-04-08T14:41:40.149Z,99242.47
2018-04-08T14:44:06.081Z,99245.13
2018-04-08T14:46:32.104Z,99247.30
2018-04-08T14:48:58.045Z,99239.58
2018-04-08T14:51:24.023Z,99239.30
2018-04-08T14:53:49.943Z,99244.41
2018-04-08T14:56:15.918Z,99230.48
2018-04-08T14:58:41.851Z,99227.27
2018-04-08T15:01:07.860Z,99226.09
2018-04-08T15:03:33.817Z,99222.45
2018-04-08T15:05:59.772Z,99224.47
2018-04-08T15:08:25.735Z,99222.11
2018-04-08T15:10:51.982Z,99216.06
2018-04-08T15:13:17.944Z,99216.14
2018-04-08T15:15:43.893Z,99208.28
2018-04-08T15:18:09.876Z,99197.77
2018-04-08T15:20:35.837Z,99212.16
2018-04-08T15:23:02.107Z,99210.05
2018-04-08T15:25:28.048Z,99218.69
2018-04-08T15:27:53.988Z,99207.60
2018-04-08T15:30:19.937Z,99205.05
2018-04-08T15:32:45.905Z,99206.75
2018-04-08T15:35:11.852Z,99195.01
2018-04-08T15:37:37.891Z,99201.48
2018-04-08T15:40:03.879Z,99196.75
2018-04-08T15:42:29.928Z,99192.78
2018-04-08T15:44:55.878Z,99192.44
2018-04-08T15:47:21.818Z,99196.36
2018-04-08T15:49:47.766Z,99193.78
2018-04-08T15:52:13.758Z,99197.98
2018-04-08T15:54:39.787Z,99195.05
2018-04-08T15:57:05.722Z,99196.17
2018-04-08T15:59:31.700Z,99193.70
2018-04-08T16:01:57.644Z,99196.15
2018-04-08T16:04:23.586Z,99196.23
2018-04-08T16:06:49.530Z,99197.86
2018-04-08T16:09:15.524Z,99192.47
2018-04-08T16:11:41.537Z,99187.23
2018-04-08T16:14:07.482Z,99191.55
2018-04-08T16:16:33.450Z,99191.20
2018-04-08T16:18:59.366Z,99195.02
2018-04-08T16:21:25.450Z,99189.31
2018-04-08T16:23:51.410Z,99197.02
2018-04-08T16:26:17.369Z,99194.24
2018-04-08T16:28:43.396Z,99191.81
2018-04-08T16:31:09.318Z,99189.36
2018-04-08T16:33:35.676Z,99187.27
2018-04-08T16:36:01.611Z,99182.50
2018-04-08T16:38:27.538Z,99181.84
2018-04-08T16:40:53.516Z,99179.61
2018-04-08T16:43:19.513Z,99180.08
2018-04-08T16:45:45.466Z,99183.58
2018-04-08T16:48:11.470Z,99164.21
2018-04-08T16:50:37.409Z,99178.10
2018-04-08T16:53:03.630Z,99174.72
2018-04-08T16:55:29.567Z,99166.09
2018-04-08T16:57:55.530Z,99163.13
2018-04-08T17:00:21.472Z,99159.12
2018-04-08T17:02:47.433Z,99160.35
2018-04-08T17:05:13.419Z,99158.36
2018-04-08T17:07:39.342Z,99153.19
2018-04-08T17:10:05.441Z,99146.38
2018-04-08T17:12:31.655Z,99151.53
2018-04-08T17:14:57.983Z,99148.72
2018-04-08T17:17:24.583Z,99144.34
2018-04-08T17:19:50.627Z,99141.48
2018-04-08T17:22:16.650Z,99145.26
2018-04-08T17:24:42.671Z,99137.41
2018-04-08T17:27:08.704Z,99145.38
2018-04-08T17:29:34.712Z,99143.26
2018-04-08T17:32:00.766Z,99148.97
2018-04-08T17:34:26.892Z,99144.47
2018-04-08T17:36:53.020Z,99138.07
2018-04-08T17:39:19.020Z,99139.72
2018-04-08T17:41:45.080Z,99131.22
2018-04-08T17:44:11.125Z,99137.34
2018-04-08T17:46:37.096Z,99141.14
2018-04-08T17:49:03.100Z,99140.34
2018-04-08T17:51:29.137Z,99141.23
2018-04-08T17:53:55.173Z,99138.73
2018-04-08T17:56:21.310Z,99144.73
2018-04-08T17:58:47.295Z,99147.23
2018-04-08T18:01:13.319Z,99145.51
2018-04-08T18:03:39.333Z,99152.69
2018-04-08T18:06:05.398Z,99151.62
2018-04-08T18:08:31.385Z,99154.97
2018-04-08T18:10:57.425Z,99153.20
2018-04-08T18:13:23.346Z,99162.33
2018-04-08T18:15:49.311Z,99162.75
2018-04-08T18:18:15.268Z,99155.83
2018-04-08T18:20:41.207Z,99151.10
2018-04-08T18:23:07.168Z,99152.61
2018-04-08T18:25:33.260Z,99165.81
2018-04-08T18:27:59.251Z,99164.30
2018-04-08T18:30:25.191Z,99164.30
2018-04-08T18:32:51.166Z,99174.11
2018-04-08T18:35:17.116Z,99178.66
2018-04-08T18:37:43.100Z,99182.61
2018-04-08T18:40:09.076Z,99188.53
2018-04-08T18:42:35.234Z,99182.19
2018-04-08T18:45:01.192Z,99180.98
2018-04-08T18:47:27.209Z,99178.97
2018-04-08T18:49:53.169Z,99180.17
2018-04-08T18:52:19.142Z,99185.67
2018-04-08T18:54:45.104Z,99195.26
2018-04-08T18:57:11.096Z,99189.82
2018-04-08T18:59:37.042Z,99185.98
2018-04-08T19:02:03.010Z,99190.05
2018-04-08T19:04:28.951Z,99187.39
2018-04-08T19:06:54.902Z,99187.00
2018-04-08T19:09:20.880Z,99188.11
2018-04-08T19:11:46.834Z,99188.66
2018-04-08T19:14:12.852Z,99184.16
2018-04-08T19:16:38.810Z,99186.57
2018-04-08T19:19:04.802Z,99183.88
2018-04-08T19:21:30.763Z,99180.13
2018-04-08T19:23:56.733Z,99175.55
2018-04-08T19:26:22.654Z,99174.28
2018-04-08T19:28:48.961Z,99177.00
2018-04-08T19:31:14.895Z,99181.20
2018-04-08T19:33:40.859Z,99180.59
2018-04-08T19:36:06.853Z,99175.03
2018-04-08T19:38:32.795Z,99178.05
2018-04-08T19:40:58.760Z,99169.03
2018-04-08T19:43:24.691Z,99174.70
2018-04-08T19:45:50.750Z,99168.09
2018-04-08T19:48:16.685Z,99164.06
2018-04-08T19:50:42.655Z,99160.81
2018-04-08T19:53:08.597Z,99165.03
2018-04-08T19:55:34.589Z,99159.20
2018-04-08T19:58:00.531Z,99155.22
2018-04-08T20:00:26.558Z,99156.39
2018-04-08T20:02:52.482Z,99155.28
2018-04-08T20:05:18.431Z,99151.56
2018-04-08T20:07:44.380Z,99138.49
2018-04-08T20:10:10.379Z,99141.36
2018-04-08T20:12:36.343Z,99136.38
2018-04-08T20:15:02.318Z,99132.81
2018-04-08T20:17:28.278Z,99136.44
2018-04-08T20:19:54.255Z,99125.78
2018-04-08T20:22:20.213Z,99124.94
2018-04-08T20:24:46.191Z,99129.16
2018-04-08T20:27:12.131Z,99136.39
2018-04-08T20:29:38.113Z,99129.91
2018-04-08T20:32:04.040Z,99129.23
2018-04-08T20:34:29.962Z,99137.66
2018-04-08T20:36:55.885Z,99136.80
2018-04-08T20:39:21.826Z,99132.81
2018-04-08T20:41:47.784Z,99134.93
2018-04-08T20:44:13.794Z,99133.83
2018-04-08T20:46:39.733Z,99131.23
2018-04-08T20:49:05.726Z,99130.26
2018-04-08T20:51:31.660Z,99131.77
2018-04-08T20:53:57.626Z,99134.20
2018-04-08T20:56:23.577Z,99135.92
2018-04-08T20:58:49.531Z,99130.34
2018-04-08T21:01:15.471Z,99131.44
2018-04-08T21:03:41.414Z,99133.89
2018-04-08T21:06:07.367Z,99126.08
2018-04-08T21:08:33.332Z,99132.48
2018-04-08T21:10:59.258Z,99130.63
2018-04-08T21:13:25.198Z,99127.33
2018-04-08T21:15:51.127Z,99133.89
2018-04-08T21:18:17.080Z,99132.42
2018-04-08T21:20:43.004Z,99119.39
2018-04-08T21:23:09.320Z,99114.97
2018-04-08T21:25:35.257Z,99121.66
2018-04-08T21:28:01.184Z,99125.45
2018-04-08T21:30:27.105Z,99128.91
2018-04-08T21:32:53.022Z,99130.95
2018-04-08T21:35:18.982Z,99128.02
2018-04-08T21:37:44.916Z,99127.37
2018-04-08T21:40:10.870Z,99124.25
2018-04-08T21:42:36.815Z,99130.91
2018-04-08T21:45:02.939Z,99132.35
2018-04-08T21:47:28.903Z,99134.48
2018-04-08T21:49:54.884Z,99125.00
2018-04-08T21:52:20.832Z,99135.47
2018-04-08T21:54:46.794Z,99129.52
2018-04-08T21:57:12.714Z,99131.49
2018-04-08T21:59:38.662Z,99128.28
2018-04-08T22:02:04.627Z,99130.81
2018-04-08T22:04:30.554Z,99131.45
2018-04-08T22:06:56.485Z,99128.45
2018-04-08T22:09:22.410Z,99132.38
2018-04-08T22:11:48.359Z,99134.95
2018-04-08T22:14:14.327Z,99131.07
2018-04-08T22:16:40.351Z,99132.08
2018-04-08T22:19:06.301Z,99131.20
2018-04-08T22:21:32.244Z,99143.97
2018-04-08T22:23:58.199Z,99143.85
2018-04-08T22:26:24.134Z,99137.63
2018-04-08T22:28:50.085Z,99134.95
2018-04-08T22:31:16.037Z,99141.29
2018-04-08T22:33:41.959Z,99137.86
2018-04-08T22:36:07.892Z,99140.91
2018-04-08T22:38:33.844Z,99134.64
2018-04-08T22:40:59.805Z,99135.81
2018-04-08T22:43:25.776Z,99139.45
2018-04-08T22:45:51.724Z,99142.48
2018-04-08T22:48:17.935Z,99147.31
2018-04-08T22:50:43.891Z,99148.23
2018-04-08T22:53:09.842Z,99141.75
2018-04-08T22:55:36.027Z,99145.06
2018-04-08T22:58:01.961Z,99147.91
2018-04-08T23:00:27.921Z,99136.95
2018-04-08T23:02:53.885Z,99137.11
2018-04-08T23:05:19.847Z,99142.11
2018-04-08T23:07:45.837Z,99134.81
2018-04-08T23:10:11.841Z,99127.19
2018-04-08T23:12:37.807Z,99125.89
2018-04-08T23:15:03.752Z,99130.58
2018-04-08T23:17:29.753Z,99129.22
2018-04-08T23:19:55.707Z,99130.19
2018-04-08T23:22:21.669Z,99118.42
2018-04-08T23:24:47.616Z,99128.73
2018-04-08T23:27:13.586Z,99127.11
2018-04-08T23:29:39.556Z,99127.88
2018-04-08T23:32:05.510Z,99119.80
2018-04-08T23:34:31.433Z,99119.22
2018-04-08T23:36:57.396Z,99120.39
2018-04-08T23:39:23.349Z,99125.91
2018-04-08T23:41:49.278Z,99124.71
2018-04-08T23:44:15.225Z,99121.28
2018-04-08T23:46:41.400Z,99123.83
2018-04-08T23:49:07.371Z,99119.52
2018-04-08T23:51:33.293Z,99113.53
2018-04-08T23:53:59.453Z,99107.73
2018-04-08T23:56:25.409Z,99116.56
2018-04-08T23:58:51.336Z,99118.13
